sensor_id;sensor_type;location;lat;lon;timestamp;temperature;humidity
74416;SHT31;62850;42.428;25.618;2022-11-15T00:01:09;10.37;80.12
74416;SHT31;62850;42.428;25.618;2022-11-15T00:03:35;10.27;80.20
74416;SHT31;62850;42.428;25.618;2022-11-15T00:06:02;10.27;80.44
74416;SHT31;62850;42.428;25.618;2022-11-15T00:08:30;10.40;80.06
74416;SHT31;62850;42.428;25.618;2022-11-15T00:11:00;10.26;80.17
74416;SHT31;62850;42.428;25.618;2022-11-15T00:13:26;10.24;80.44
74416;SHT31;62850;42.428;25.618;2022-11-15T00:15:51;10.30;80.20
74416;SHT31;62850;42.428;25.618;2022-11-15T00:18:17;10.21;80.26
74416;SHT31;62850;42.428;25.618;2022-11-15T00:20:43;10.23;80.34
74416;SHT31;62850;42.428;25.618;2022-11-15T00:23:09;10.26;80.19
74416;SHT31;62850;42.428;25.618;2022-11-15T00:25:34;10.27;80.12
74416;SHT31;62850;42.428;25.618;2022-11-15T00:28:00;10.24;80.11
74416;SHT31;62850;42.428;25.618;2022-11-15T00:30:26;10.26;80.11
74416;SHT31;62850;42.428;25.618;2022-11-15T00:32:52;10.19;80.05
74416;SHT31;62850;42.428;25.618;2022-11-15T00:35:18;10.20;80.12
74416;SHT31;62850;42.428;25.618;2022-11-15T00:37:44;10.27;80.01
74416;SHT31;62850;42.428;25.618;2022-11-15T00:40:11;10.27;79.91
74416;SHT31;62850;42.428;25.618;2022-11-15T00:42:38;10.16;80.04
74416;SHT31;62850;42.428;25.618;2022-11-15T00:45:03;10.16;80.24
74416;SHT31;62850;42.428;25.618;2022-11-15T00:47:29;10.21;80.13
74416;SHT31;62850;42.428;25.618;2022-11-15T00:49:55;10.30;79.86
74416;SHT31;62850;42.428;25.618;2022-11-15T00:52:20;10.30;79.95
74416;SHT31;62850;42.428;25.618;2022-11-15T00:54:46;10.33;79.93
74416;SHT31;62850;42.428;25.618;2022-11-15T00:57:11;10.29;79.92
74416;SHT31;62850;42.428;25.618;2022-11-15T00:59:37;10.32;79.83
74416;SHT31;62850;42.428;25.618;2022-11-15T01:02:02;10.30;80.03
74416;SHT31;62850;42.428;25.618;2022-11-15T01:04:28;10.29;79.85
74416;SHT31;62850;42.428;25.618;2022-11-15T01:06:53;10.37;79.73
74416;SHT31;62850;42.428;25.618;2022-11-15T01:09:19;10.33;79.92
74416;SHT31;62850;42.428;25.618;2022-11-15T01:11:44;10.30;80.19
74416;SHT31;62850;42.428;25.618;2022-11-15T01:14:10;10.20;80.48
74416;SHT31;62850;42.428;25.618;2022-11-15T01:16:35;10.20;80.36
74416;SHT31;62850;42.428;25.618;2022-11-15T01:19:01;10.20;80.29
74416;SHT31;62850;42.428;25.618;2022-11-15T01:21:26;10.19;80.29
74416;SHT31;62850;42.428;25.618;2022-11-15T01:23:56;10.14;80.34
74416;SHT31;62850;42.428;25.618;2022-11-15T01:26:23;10.14;80.30
74416;SHT31;62850;42.428;25.618;2022-11-15T01:28:48;10.00;80.77
74416;SHT31;62850;42.428;25.618;2022-11-15T01:31:17;10.00;80.94
74416;SHT31;62850;42.428;25.618;2022-11-15T01:33:43;9.99;80.94
74416;SHT31;62850;42.428;25.618;2022-11-15T01:36:12;10.08;80.84
74416;SHT31;62850;42.428;25.618;2022-11-15T01:38:38;10.09;80.71
74416;SHT31;62850;42.428;25.618;2022-11-15T01:41:04;10.14;80.66
74416;SHT31;62850;42.428;25.618;2022-11-15T01:43:32;10.19;80.52
74416;SHT31;62850;42.428;25.618;2022-11-15T01:46:05;10.20;80.41
74416;SHT31;62850;42.428;25.618;2022-11-15T01:48:33;10.26;80.10
74416;SHT31;62850;42.428;25.618;2022-11-15T01:51:06;10.29;80.12
74416;SHT31;62850;42.428;25.618;2022-11-15T01:53:33;10.32;80.03
74416;SHT31;62850;42.428;25.618;2022-11-15T01:56:06;10.33;80.07
74416;SHT31;62850;42.428;25.618;2022-11-15T01:58:33;10.30;80.11
74416;SHT31;62850;42.428;25.618;2022-11-15T02:00:59;10.29;79.98
74416;SHT31;62850;42.428;25.618;2022-11-15T02:03:35;10.33;79.94
74416;SHT31;62850;42.428;25.618;2022-11-15T02:06:03;10.32;79.72
74416;SHT31;62850;42.428;25.618;2022-11-15T02:08:30;10.27;79.81
74416;SHT31;62850;42.428;25.618;2022-11-15T02:10:55;10.16;80.05
74416;SHT31;62850;42.428;25.618;2022-11-15T02:13:21;10.10;80.21
74416;SHT31;62850;42.428;25.618;2022-11-15T02:16:01;10.13;80.24
74416;SHT31;62850;42.428;25.618;2022-11-15T02:18:42;10.09;80.39
74416;SHT31;62850;42.428;25.618;2022-11-15T02:37:34;10.26;80.06
74416;SHT31;62850;42.428;25.618;2022-11-15T02:40:08;10.32;79.87
74416;SHT31;62850;42.428;25.618;2022-11-15T02:42:41;10.26;79.86
74416;SHT31;62850;42.428;25.618;2022-11-15T02:45:35;10.21;79.97
74416;SHT31;62850;42.428;25.618;2022-11-15T02:48:03;10.26;79.71
74416;SHT31;62850;42.428;25.618;2022-11-15T02:50:31;10.32;79.80
74416;SHT31;62850;42.428;25.618;2022-11-15T02:52:58;10.32;79.62
74416;SHT31;62850;42.428;25.618;2022-11-15T02:55:32;10.34;79.74
74416;SHT31;62850;42.428;25.618;2022-11-15T02:58:24;10.27;79.68
74416;SHT31;62850;42.428;25.618;2022-11-15T03:04:23;10.21;79.84
74416;SHT31;62850;42.428;25.618;2022-11-15T03:06:59;10.14;80.03
74416;SHT31;62850;42.428;25.618;2022-11-15T03:09:48;10.17;80.05
74416;SHT31;62850;42.428;25.618;2022-11-15T03:15:11;10.27;79.93
74416;SHT31;62850;42.428;25.618;2022-11-15T03:17:47;10.24;79.82
74416;SHT31;62850;42.428;25.618;2022-11-15T03:20:15;10.23;79.85
74416;SHT31;62850;42.428;25.618;2022-11-15T03:22:44;10.27;79.53
74416;SHT31;62850;42.428;25.618;2022-11-15T03:25:16;10.33;79.51
74416;SHT31;62850;42.428;25.618;2022-11-15T03:27:46;10.33;79.69
74416;SHT31;62850;42.428;25.618;2022-11-15T03:30:14;10.32;79.70
74416;SHT31;62850;42.428;25.618;2022-11-15T03:33:05;10.29;79.60
74416;SHT31;62850;42.428;25.618;2022-11-15T03:35:40;10.29;79.55
74416;SHT31;62850;42.428;25.618;2022-11-15T03:38:29;10.29;79.61
74416;SHT31;62850;42.428;25.618;2022-11-15T03:41:00;10.29;79.62
74416;SHT31;62850;42.428;25.618;2022-11-15T03:46:00;10.32;79.36
74416;SHT31;62850;42.428;25.618;2022-11-15T03:48:33;10.30;79.39
74416;SHT31;62850;42.428;25.618;2022-11-15T03:51:00;10.27;79.55
74416;SHT31;62850;42.428;25.618;2022-11-15T03:53:27;10.19;79.75
74416;SHT31;62850;42.428;25.618;2022-11-15T03:55:53;10.23;79.38
74416;SHT31;62850;42.428;25.618;2022-11-15T03:58:18;10.29;79.30
74416;SHT31;62850;42.428;25.618;2022-11-15T04:00:44;10.33;79.20
74416;SHT31;62850;42.428;25.618;2022-11-15T04:03:09;10.34;79.16
74416;SHT31;62850;42.428;25.618;2022-11-15T04:05:35;10.36;79.11
74416;SHT31;62850;42.428;25.618;2022-11-15T04:08:00;10.38;79.04
74416;SHT31;62850;42.428;25.618;2022-11-15T04:10:26;10.32;79.33
74416;SHT31;62850;42.428;25.618;2022-11-15T04:12:51;10.23;79.59
74416;SHT31;62850;42.428;25.618;2022-11-15T04:15:19;10.27;79.60
74416;SHT31;62850;42.428;25.618;2022-11-15T04:17:50;10.30;79.43
74416;SHT31;62850;42.428;25.618;2022-11-15T04:20:18;10.24;79.74
74416;SHT31;62850;42.428;25.618;2022-11-15T04:25:59;10.19;79.82
74416;SHT31;62850;42.428;25.618;2022-11-15T04:28:25;10.17;80.01
74416;SHT31;62850;42.428;25.618;2022-11-15T04:30:51;10.14;80.17
74416;SHT31;62850;42.428;25.618;2022-11-15T04:33:16;10.13;80.23
74416;SHT31;62850;42.428;25.618;2022-11-15T04:35:43;10.13;80.13
74416;SHT31;62850;42.428;25.618;2022-11-15T04:38:10;10.13;80.14
74416;SHT31;62850;42.428;25.618;2022-11-15T04:40:37;10.14;79.99
74416;SHT31;62850;42.428;25.618;2022-11-15T04:43:03;10.14;80.06
74416;SHT31;62850;42.428;25.618;2022-11-15T04:45:28;10.10;80.04
74416;SHT31;62850;42.428;25.618;2022-11-15T04:47:54;10.05;80.07
74416;SHT31;62850;42.428;25.618;2022-11-15T04:50:19;10.00;79.99
74416;SHT31;62850;42.428;25.618;2022-11-15T04:52:53;10.02;80.04
74416;SHT31;62850;42.428;25.618;2022-11-15T04:55:19;10.05;80.07
74416;SHT31;62850;42.428;25.618;2022-11-15T04:57:44;10.02;80.14
74416;SHT31;62850;42.428;25.618;2022-11-15T05:00:12;9.98;80.07
74416;SHT31;62850;42.428;25.618;2022-11-15T05:02:38;9.89;80.52
74416;SHT31;62850;42.428;25.618;2022-11-15T05:05:24;9.92;80.43
74416;SHT31;62850;42.428;25.618;2022-11-15T05:07:49;9.92;80.67
74416;SHT31;62850;42.428;25.618;2022-11-15T05:10:15;9.93;80.31
74416;SHT31;62850;42.428;25.618;2022-11-15T05:12:40;10.02;80.00
74416;SHT31;62850;42.428;25.618;2022-11-15T05:15:06;10.02;80.02
74416;SHT31;62850;42.428;25.618;2022-11-15T05:17:32;10.06;79.89
74416;SHT31;62850;42.428;25.618;2022-11-15T05:19:57;9.98;80.04
74416;SHT31;62850;42.428;25.618;2022-11-15T05:22:23;10.02;80.01
74416;SHT31;62850;42.428;25.618;2022-11-15T05:24:51;9.99;81.64
74416;SHT31;62850;42.428;25.618;2022-11-15T05:27:17;10.02;80.34
74416;SHT31;62850;42.428;25.618;2022-11-15T05:29:42;9.96;80.28
74416;SHT31;62850;42.428;25.618;2022-11-15T05:32:08;9.93;80.30
74416;SHT31;62850;42.428;25.618;2022-11-15T05:34:35;9.98;80.10
74416;SHT31;62850;42.428;25.618;2022-11-15T05:37:03;10.05;80.04
74416;SHT31;62850;42.428;25.618;2022-11-15T05:39:29;10.00;80.13
74416;SHT31;62850;42.428;25.618;2022-11-15T05:41:59;9.99;80.10
74416;SHT31;62850;42.428;25.618;2022-11-15T05:44:26;10.06;79.79
74416;SHT31;62850;42.428;25.618;2022-11-15T05:46:53;10.09;79.60
74416;SHT31;62850;42.428;25.618;2022-11-15T05:49:22;10.06;79.58
74416;SHT31;62850;42.428;25.618;2022-11-15T05:51:50;10.06;79.51
74416;SHT31;62850;42.428;25.618;2022-11-15T05:54:17;10.14;79.29
74416;SHT31;62850;42.428;25.618;2022-11-15T05:56:43;10.16;80.34
74416;SHT31;62850;42.428;25.618;2022-11-15T05:59:09;10.16;80.00
74416;SHT31;62850;42.428;25.618;2022-11-15T06:01:36;10.21;79.67
74416;SHT31;62850;42.428;25.618;2022-11-15T06:04:02;10.16;79.43
74416;SHT31;62850;42.428;25.618;2022-11-15T06:06:28;10.08;79.70
74416;SHT31;62850;42.428;25.618;2022-11-15T06:08:54;10.12;79.50
74416;SHT31;62850;42.428;25.618;2022-11-15T06:11:19;10.08;79.88
74416;SHT31;62850;42.428;25.618;2022-11-15T06:13:45;10.14;79.71
74416;SHT31;62850;42.428;25.618;2022-11-15T06:16:10;10.16;79.48
74416;SHT31;62850;42.428;25.618;2022-11-15T06:18:36;10.24;79.21
74416;SHT31;62850;42.428;25.618;2022-11-15T06:21:02;10.30;79.18
74416;SHT31;62850;42.428;25.618;2022-11-15T06:23:32;10.30;79.02
74416;SHT31;62850;42.428;25.618;2022-11-15T06:25:59;10.33;78.92
74416;SHT31;62850;42.428;25.618;2022-11-15T06:28:28;10.36;78.80
74416;SHT31;62850;42.428;25.618;2022-11-15T06:30:56;10.33;78.71
74416;SHT31;62850;42.428;25.618;2022-11-15T06:33:22;10.30;78.85
74416;SHT31;62850;42.428;25.618;2022-11-15T06:35:47;10.27;78.65
74416;SHT31;62850;42.428;25.618;2022-11-15T06:38:13;10.20;79.22
74416;SHT31;62850;42.428;25.618;2022-11-15T06:40:39;10.16;79.47
74416;SHT31;62850;42.428;25.618;2022-11-15T06:43:05;10.17;79.25
74416;SHT31;62850;42.428;25.618;2022-11-15T06:45:31;10.27;79.24
74416;SHT31;62850;42.428;25.618;2022-11-15T06:47:57;10.30;79.20
74416;SHT31;62850;42.428;25.618;2022-11-15T06:50:23;10.30;79.14
74416;SHT31;62850;42.428;25.618;2022-11-15T06:52:49;10.24;79.09
74416;SHT31;62850;42.428;25.618;2022-11-15T06:55:14;10.26;78.98
74416;SHT31;62850;42.428;25.618;2022-11-15T06:57:58;10.29;79.17
74416;SHT31;62850;42.428;25.618;2022-11-15T07:00:23;10.36;78.86
74416;SHT31;62850;42.428;25.618;2022-11-15T07:02:49;10.32;78.92
74416;SHT31;62850;42.428;25.618;2022-11-15T07:05:15;10.38;78.74
74416;SHT31;62850;42.428;25.618;2022-11-15T07:07:41;10.33;78.76
74416;SHT31;62850;42.428;25.618;2022-11-15T07:10:07;10.29;78.91
74416;SHT31;62850;42.428;25.618;2022-11-15T07:12:33;10.27;79.15
74416;SHT31;62850;42.428;25.618;2022-11-15T07:14:59;10.26;79.22
74416;SHT31;62850;42.428;25.618;2022-11-15T07:17:24;10.17;79.41
74416;SHT31;62850;42.428;25.618;2022-11-15T07:19:50;10.26;79.12
74416;SHT31;62850;42.428;25.618;2022-11-15T07:22:15;10.23;79.26
74416;SHT31;62850;42.428;25.618;2022-11-15T07:24:41;10.30;79.08
74416;SHT31;62850;42.428;25.618;2022-11-15T07:27:06;10.32;78.96
74416;SHT31;62850;42.428;25.618;2022-11-15T07:29:32;10.33;79.09
74416;SHT31;62850;42.428;25.618;2022-11-15T07:31:57;10.38;78.91
74416;SHT31;62850;42.428;25.618;2022-11-15T07:34:23;10.29;78.98
74416;SHT31;62850;42.428;25.618;2022-11-15T07:36:49;10.40;78.82
74416;SHT31;62850;42.428;25.618;2022-11-15T07:39:14;10.36;79.04
74416;SHT31;62850;42.428;25.618;2022-11-15T07:41:40;10.43;78.82
74416;SHT31;62850;42.428;25.618;2022-11-15T07:44:05;10.37;78.71
74416;SHT31;62850;42.428;25.618;2022-11-15T07:46:31;10.44;78.39
74416;SHT31;62850;42.428;25.618;2022-11-15T07:48:57;10.47;78.45
74416;SHT31;62850;42.428;25.618;2022-11-15T07:51:22;10.51;78.44
74416;SHT31;62850;42.428;25.618;2022-11-15T07:53:48;10.58;78.29
74416;SHT31;62850;42.428;25.618;2022-11-15T07:56:13;10.57;78.42
74416;SHT31;62850;42.428;25.618;2022-11-15T07:58:39;10.60;78.12
74416;SHT31;62850;42.428;25.618;2022-11-15T08:01:06;10.60;77.75
74416;SHT31;62850;42.428;25.618;2022-11-15T08:03:35;10.63;78.03
74416;SHT31;62850;42.428;25.618;2022-11-15T08:06:01;10.63;77.93
74416;SHT31;62850;42.428;25.618;2022-11-15T08:08:27;10.56;77.90
74416;SHT31;62850;42.428;25.618;2022-11-15T08:10:53;10.64;77.79
74416;SHT31;62850;42.428;25.618;2022-11-15T08:13:18;10.75;77.74
74416;SHT31;62850;42.428;25.618;2022-11-15T08:15:44;10.84;77.61
74416;SHT31;62850;42.428;25.618;2022-11-15T08:18:12;10.88;77.45
74416;SHT31;62850;42.428;25.618;2022-11-15T08:20:38;10.75;77.36
74416;SHT31;62850;42.428;25.618;2022-11-15T08:23:05;10.79;77.59
74416;SHT31;62850;42.428;25.618;2022-11-15T08:25:32;10.85;78.50
74416;SHT31;62850;42.428;25.618;2022-11-15T08:27:59;10.87;78.08
74416;SHT31;62850;42.428;25.618;2022-11-15T08:30:26;10.91;77.98
74416;SHT31;62850;42.428;25.618;2022-11-15T08:32:52;10.88;77.55
74416;SHT31;62850;42.428;25.618;2022-11-15T08:35:19;10.63;78.13
74416;SHT31;62850;42.428;25.618;2022-11-15T08:37:45;10.71;77.85
74416;SHT31;62850;42.428;25.618;2022-11-15T08:40:11;10.81;77.89
74416;SHT31;62850;42.428;25.618;2022-11-15T08:42:37;10.89;77.80
74416;SHT31;62850;42.428;25.618;2022-11-15T08:45:03;10.99;77.54
74416;SHT31;62850;42.428;25.618;2022-11-15T08:47:29;11.06;77.18
74416;SHT31;62850;42.428;25.618;2022-11-15T08:49:54;11.04;77.00
74416;SHT31;62850;42.428;25.618;2022-11-15T08:52:21;11.08;77.14
74416;SHT31;62850;42.428;25.618;2022-11-15T08:54:46;11.16;76.91
74416;SHT31;62850;42.428;25.618;2022-11-15T08:57:12;11.02;76.99
74416;SHT31;62850;42.428;25.618;2022-11-15T08:59:38;11.05;76.93
74416;SHT31;62850;42.428;25.618;2022-11-15T09:02:04;11.14;76.82
74416;SHT31;62850;42.428;25.618;2022-11-15T09:04:29;11.18;76.67
74416;SHT31;62850;42.428;25.618;2022-11-15T09:06:55;11.20;76.39
74416;SHT31;62850;42.428;25.618;2022-11-15T09:09:21;11.20;76.44
74416;SHT31;62850;42.428;25.618;2022-11-15T09:11:46;11.27;76.36
74416;SHT31;62850;42.428;25.618;2022-11-15T09:14:13;11.22;76.39
74416;SHT31;62850;42.428;25.618;2022-11-15T09:16:39;11.22;76.40
74416;SHT31;62850;42.428;25.618;2022-11-15T09:19:04;11.22;76.29
74416;SHT31;62850;42.428;25.618;2022-11-15T09:21:30;11.23;76.24
74416;SHT31;62850;42.428;25.618;2022-11-15T09:23:56;11.19;76.21
74416;SHT31;62850;42.428;25.618;2022-11-15T09:26:22;11.16;76.49
74416;SHT31;62850;42.428;25.618;2022-11-15T09:28:47;11.23;76.26
74416;SHT31;62850;42.428;25.618;2022-11-15T09:31:13;11.29;76.35
74416;SHT31;62850;42.428;25.618;2022-11-15T09:33:39;11.26;76.63
74416;SHT31;62850;42.428;25.618;2022-11-15T09:36:07;11.19;76.71
74416;SHT31;62850;42.428;25.618;2022-11-15T09:38:33;11.08;77.11
74416;SHT31;62850;42.428;25.618;2022-11-15T09:49:34;11.02;77.14
74416;SHT31;62850;42.428;25.618;2022-11-15T09:52:00;11.09;76.71
74416;SHT31;62850;42.428;25.618;2022-11-15T09:54:39;11.05;76.98
74416;SHT31;62850;42.428;25.618;2022-11-15T09:57:14;11.08;77.00
74416;SHT31;62850;42.428;25.618;2022-11-15T10:05:32;11.15;76.52
74416;SHT31;62850;42.428;25.618;2022-11-15T10:11:08;10.95;77.25
74416;SHT31;62850;42.428;25.618;2022-11-15T10:13:37;11.04;76.91
74416;SHT31;62850;42.428;25.618;2022-11-15T10:16:32;11.04;77.12
74416;SHT31;62850;42.428;25.618;2022-11-15T10:24:43;11.26;76.53
74416;SHT31;62850;42.428;25.618;2022-11-15T10:27:14;11.15;76.35
74416;SHT31;62850;42.428;25.618;2022-11-15T10:29:49;11.08;76.48
74416;SHT31;62850;42.428;25.618;2022-11-15T10:32:19;11.08;76.58
74416;SHT31;62850;42.428;25.618;2022-11-15T10:34:49;11.04;76.33
74416;SHT31;62850;42.428;25.618;2022-11-15T10:37:27;11.15;76.28
74416;SHT31;62850;42.428;25.618;2022-11-15T10:40:16;11.18;76.53
74416;SHT31;62850;42.428;25.618;2022-11-15T10:42:41;11.18;76.28
74416;SHT31;62850;42.428;25.618;2022-11-15T10:45:27;11.16;76.35
74416;SHT31;62850;42.428;25.618;2022-11-15T10:47:53;11.19;76.25
74416;SHT31;62850;42.428;25.618;2022-11-15T10:50:29;11.20;76.12
74416;SHT31;62850;42.428;25.618;2022-11-15T10:52:54;11.29;76.00
74416;SHT31;62850;42.428;25.618;2022-11-15T10:55:24;11.27;76.09
74416;SHT31;62850;42.428;25.618;2022-11-15T10:57:53;11.37;75.81
74416;SHT31;62850;42.428;25.618;2022-11-15T11:08:01;11.63;75.04
74416;SHT31;62850;42.428;25.618;2022-11-15T11:10:30;11.70;74.91
74416;SHT31;62850;42.428;25.618;2022-11-15T11:12:55;11.73;74.95
74416;SHT31;62850;42.428;25.618;2022-11-15T11:15:24;11.71;74.65
74416;SHT31;62850;42.428;25.618;2022-11-15T11:18:07;11.70;74.44
74416;SHT31;62850;42.428;25.618;2022-11-15T11:20:45;11.71;74.48
74416;SHT31;62850;42.428;25.618;2022-11-15T11:25:54;11.83;74.16
74416;SHT31;62850;42.428;25.618;2022-11-15T11:39:50;11.80;74.06
74416;SHT31;62850;42.428;25.618;2022-11-15T11:42:42;11.81;73.95
74416;SHT31;62850;42.428;25.618;2022-11-15T11:45:20;11.86;73.78
74416;SHT31;62850;42.428;25.618;2022-11-15T11:47:57;11.86;73.28
74416;SHT31;62850;42.428;25.618;2022-11-15T11:50:27;11.84;73.60
74416;SHT31;62850;42.428;25.618;2022-11-15T11:53:12;11.87;73.43
74416;SHT31;62850;42.428;25.618;2022-11-15T11:55:53;11.87;73.13
74416;SHT31;62850;42.428;25.618;2022-11-15T11:58:37;11.83;72.87
74416;SHT31;62850;42.428;25.618;2022-11-15T12:01:14;11.91;72.77
74416;SHT31;62850;42.428;25.618;2022-11-15T12:09:39;11.95;72.85
74416;SHT31;62850;42.428;25.618;2022-11-15T12:15:18;11.94;72.21
74416;SHT31;62850;42.428;25.618;2022-11-15T12:17:36;11.83;72.57
74416;SHT31;62850;42.428;25.618;2022-11-15T12:20:26;11.81;72.69
74416;SHT31;62850;42.428;25.618;2022-11-15T12:25:55;11.76;72.38
74416;SHT31;62850;42.428;25.618;2022-11-15T12:33:41;11.78;73.37
74416;SHT31;62850;42.428;25.618;2022-11-15T12:39:04;11.86;73.17
74416;SHT31;62850;42.428;25.618;2022-11-15T12:41:35;11.86;72.89
74416;SHT31;62850;42.428;25.618;2022-11-15T12:44:01;11.91;72.72
74416;SHT31;62850;42.428;25.618;2022-11-15T12:49:09;11.81;73.04
74416;SHT31;62850;42.428;25.618;2022-11-15T13:02:37;11.80;72.24
74416;SHT31;62850;42.428;25.618;2022-11-15T13:17:51;11.84;72.72
74416;SHT31;62850;42.428;25.618;2022-11-15T13:20:19;11.83;72.58
74416;SHT31;62850;42.428;25.618;2022-11-15T13:30:52;11.63;72.44
74416;SHT31;62850;42.428;25.618;2022-11-15T13:35:51;11.76;71.88
74416;SHT31;62850;42.428;25.618;2022-11-15T13:38:26;11.76;72.16
74416;SHT31;62850;42.428;25.618;2022-11-15T13:40:52;11.77;71.96
74416;SHT31;62850;42.428;25.618;2022-11-15T13:46:16;11.78;71.02
74416;SHT31;62850;42.428;25.618;2022-11-15T13:48:42;11.80;71.35
74416;SHT31;62850;42.428;25.618;2022-11-15T13:53:45;11.88;71.01
74416;SHT31;62850;42.428;25.618;2022-11-15T13:56:13;11.88;71.08
74416;SHT31;62850;42.428;25.618;2022-11-15T13:58:39;11.91;70.50
74416;SHT31;62850;42.428;25.618;2022-11-15T14:01:05;11.94;70.73
74416;SHT31;62850;42.428;25.618;2022-11-15T14:03:33;11.88;70.64
74416;SHT31;62850;42.428;25.618;2022-11-15T14:08:39;11.87;70.74
74416;SHT31;62850;42.428;25.618;2022-11-15T14:11:17;11.90;70.66
74416;SHT31;62850;42.428;25.618;2022-11-15T14:16:38;11.84;71.09
74416;SHT31;62850;42.428;25.618;2022-11-15T14:19:06;11.84;70.64
74416;SHT31;62850;42.428;25.618;2022-11-15T14:21:32;11.83;70.13
74416;SHT31;62850;42.428;25.618;2022-11-15T14:24:18;11.76;70.55
74416;SHT31;62850;42.428;25.618;2022-11-15T14:26:44;11.74;70.12
74416;SHT31;62850;42.428;25.618;2022-11-15T14:29:27;11.73;70.52
74416;SHT31;62850;42.428;25.618;2022-11-15T14:31:54;11.74;70.41
74416;SHT31;62850;42.428;25.618;2022-11-15T14:34:32;11.63;70.15
74416;SHT31;62850;42.428;25.618;2022-11-15T14:36:57;11.60;70.30
74416;SHT31;62850;42.428;25.618;2022-11-15T14:39:23;11.59;70.31
74416;SHT31;62850;42.428;25.618;2022-11-15T14:41:50;11.59;70.30
74416;SHT31;62850;42.428;25.618;2022-11-15T14:44:16;11.57;70.55
74416;SHT31;62850;42.428;25.618;2022-11-15T14:46:43;11.56;70.17
74416;SHT31;62850;42.428;25.618;2022-11-15T14:49:09;11.49;70.23
74416;SHT31;62850;42.428;25.618;2022-11-15T14:51:35;11.35;70.72
74416;SHT31;62850;42.428;25.618;2022-11-15T14:54:01;11.39;70.47
74416;SHT31;62850;42.428;25.618;2022-11-15T14:56:26;11.53;70.58
74416;SHT31;62850;42.428;25.618;2022-11-15T14:58:52;11.52;70.51
74416;SHT31;62850;42.428;25.618;2022-11-15T15:01:24;11.47;70.24
74416;SHT31;62850;42.428;25.618;2022-11-15T15:03:51;11.47;69.99
74416;SHT31;62850;42.428;25.618;2022-11-15T15:06:18;11.47;70.21
74416;SHT31;62850;42.428;25.618;2022-11-15T15:08:44;11.50;70.47
74416;SHT31;62850;42.428;25.618;2022-11-15T15:11:16;11.50;70.44
74416;SHT31;62850;42.428;25.618;2022-11-15T15:13:44;11.49;70.76
74416;SHT31;62850;42.428;25.618;2022-11-15T15:16:09;11.47;70.93
74416;SHT31;62850;42.428;25.618;2022-11-15T15:18:34;11.50;70.67
74416;SHT31;62850;42.428;25.618;2022-11-15T15:21:00;11.49;70.46
74416;SHT31;62850;42.428;25.618;2022-11-15T15:23:32;11.50;69.75
74416;SHT31;62850;42.428;25.618;2022-11-15T15:25:58;11.55;69.93
74416;SHT31;62850;42.428;25.618;2022-11-15T15:28:24;11.46;70.41
74416;SHT31;62850;42.428;25.618;2022-11-15T15:30:50;11.49;70.44
74416;SHT31;62850;42.428;25.618;2022-11-15T15:33:15;11.50;70.86
74416;SHT31;62850;42.428;25.618;2022-11-15T15:35:41;11.44;70.88
74416;SHT31;62850;42.428;25.618;2022-11-15T15:38:11;11.44;70.75
74416;SHT31;62850;42.428;25.618;2022-11-15T15:40:37;11.46;70.64
74416;SHT31;62850;42.428;25.618;2022-11-15T15:43:03;11.42;70.92
74416;SHT31;62850;42.428;25.618;2022-11-15T15:45:28;11.42;70.47
74416;SHT31;62850;42.428;25.618;2022-11-15T15:47:55;11.43;70.44
74416;SHT31;62850;42.428;25.618;2022-11-15T15:50:29;11.44;70.73
74416;SHT31;62850;42.428;25.618;2022-11-15T15:52:59;11.47;70.50
74416;SHT31;62850;42.428;25.618;2022-11-15T15:55:25;11.49;69.81
74416;SHT31;62850;42.428;25.618;2022-11-15T15:57:51;11.55;69.69
74416;SHT31;62850;42.428;25.618;2022-11-15T16:00:18;11.52;69.97
74416;SHT31;62850;42.428;25.618;2022-11-15T16:02:44;11.52;69.94
74416;SHT31;62850;42.428;25.618;2022-11-15T16:05:11;11.47;70.30
74416;SHT31;62850;42.428;25.618;2022-11-15T16:07:37;11.53;69.95
74416;SHT31;62850;42.428;25.618;2022-11-15T16:12:41;11.47;70.30
74416;SHT31;62850;42.428;25.618;2022-11-15T16:15:07;11.44;70.17
74416;SHT31;62850;42.428;25.618;2022-11-15T16:17:35;11.46;70.28
74416;SHT31;62850;42.428;25.618;2022-11-15T16:20:02;11.39;70.13
74416;SHT31;62850;42.428;25.618;2022-11-15T16:22:28;11.43;70.37
74416;SHT31;62850;42.428;25.618;2022-11-15T16:24:54;11.39;70.66
74416;SHT31;62850;42.428;25.618;2022-11-15T16:27:21;11.44;70.32
74416;SHT31;62850;42.428;25.618;2022-11-15T16:29:47;11.47;69.49
74416;SHT31;62850;42.428;25.618;2022-11-15T16:32:13;11.47;69.82
74416;SHT31;62850;42.428;25.618;2022-11-15T16:34:39;11.49;69.94
74416;SHT31;62850;42.428;25.618;2022-11-15T16:37:05;11.52;69.39
74416;SHT31;62850;42.428;25.618;2022-11-15T16:39:31;11.49;69.52
74416;SHT31;62850;42.428;25.618;2022-11-15T16:41:57;11.53;69.38
74416;SHT31;62850;42.428;25.618;2022-11-15T16:44:23;11.50;69.56
74416;SHT31;62850;42.428;25.618;2022-11-15T16:46:49;11.50;69.55
74416;SHT31;62850;42.428;25.618;2022-11-15T16:49:17;11.52;69.56
74416;SHT31;62850;42.428;25.618;2022-11-15T16:51:48;11.59;69.72
74416;SHT31;62850;42.428;25.618;2022-11-15T16:54:14;11.60;69.53
74416;SHT31;62850;42.428;25.618;2022-11-15T16:56:40;11.66;69.27
74416;SHT31;62850;42.428;25.618;2022-11-15T16:59:06;11.62;69.24
74416;SHT31;62850;42.428;25.618;2022-11-15T17:01:34;11.55;69.25
74416;SHT31;62850;42.428;25.618;2022-11-15T17:04:00;11.59;69.51
74416;SHT31;62850;42.428;25.618;2022-11-15T17:06:37;11.60;69.70
74416;SHT31;62850;42.428;25.618;2022-11-15T17:09:03;11.56;69.90
74416;SHT31;62850;42.428;25.618;2022-11-15T17:11:29;11.53;69.81
74416;SHT31;62850;42.428;25.618;2022-11-15T17:13:58;11.52;69.51
74416;SHT31;62850;42.428;25.618;2022-11-15T17:16:24;11.53;69.17
74416;SHT31;62850;42.428;25.618;2022-11-15T17:18:50;11.47;69.03
74416;SHT31;62850;42.428;25.618;2022-11-15T17:21:19;11.47;69.65
74416;SHT31;62850;42.428;25.618;2022-11-15T17:23:46;11.47;69.90
74416;SHT31;62850;42.428;25.618;2022-11-15T17:26:13;11.49;70.06
74416;SHT31;62850;42.428;25.618;2022-11-15T17:28:39;11.47;69.83
74416;SHT31;62850;42.428;25.618;2022-11-15T17:31:07;11.40;69.83
74416;SHT31;62850;42.428;25.618;2022-11-15T17:33:33;11.33;69.72
74416;SHT31;62850;42.428;25.618;2022-11-15T17:36:00;11.37;69.87
74416;SHT31;62850;42.428;25.618;2022-11-15T17:38:27;11.29;70.36
74416;SHT31;62850;42.428;25.618;2022-11-15T17:41:05;11.27;70.47
74416;SHT31;62850;42.428;25.618;2022-11-15T17:43:32;11.27;70.35
74416;SHT31;62850;42.428;25.618;2022-11-15T17:45:59;11.25;70.19
74416;SHT31;62850;42.428;25.618;2022-11-15T17:48:25;11.27;70.20